createdAt,value
2018-07-01T00:00:40.411Z,21.10
2018-07-01T00:03:08.805Z,20.90
2018-07-01T00:05:37.244Z,20.70
2018-07-01T00:08:05.669Z,20.80
2018-07-01T00:10:34.087Z,20.90
2018-07-01T00:13:02.493Z,20.90
2018-07-01T00:15:30.915Z,20.70
2018-07-01T00:18:07.664Z,20.60
2018-07-01T00:20:36.166Z,20.60
2018-07-01T00:23:04.694Z,20.60
2018-07-01T00:25:33.073Z,20.70
2018-07-01T00:28:01.417Z,20.70
2018-07-01T00:30:29.832Z,20.50
2018-07-01T00:32:58.252Z,20.60
2018-07-01T00:35:26.650Z,20.50
2018-07-01T00:37:55.148Z,20.50
2018-07-01T00:40:31.601Z,20.40
2018-07-01T00:43:00.068Z,20.40
2018-07-01T00:45:28.419Z,20.40
2018-07-01T00:47:56.758Z,20.40
2018-07-01T00:50:25.181Z,20.30
2018-07-01T00:52:53.634Z,20.20
2018-07-01T00:55:22.064Z,20.00
2018-07-01T00:57:50.421Z,20.10
2018-07-01T01:00:23.041Z,20.00
2018-07-01T01:05:54.626Z,19.90
2018-07-01T01:08:23.020Z,20.00
2018-07-01T01:10:51.449Z,20.00
2018-07-01T01:13:19.872Z,20.00
2018-07-01T01:15:48.259Z,19.90
2018-07-01T01:18:16.582Z,19.90
2018-07-01T01:20:44.998Z,19.80
2018-07-01T01:23:13.375Z,19.80
2018-07-01T01:25:41.746Z,19.80
2018-07-01T01:28:29.712Z,19.70
2018-07-01T01:30:58.188Z,19.60
2018-07-01T01:33:26.624Z,19.60
2018-07-01T01:35:55.040Z,19.60
2018-07-01T01:38:25.014Z,19.60
2018-07-01T01:42:02.362Z,19.50
2018-07-01T01:44:40.122Z,19.60
2018-07-01T01:47:16.745Z,19.40
2018-07-01T01:52:49.688Z,19.40
2018-07-01T01:55:29.051Z,19.40
2018-07-01T01:58:03.076Z,19.50
2018-07-01T02:00:35.412Z,19.30
2018-07-01T02:03:08.214Z,19.20
2018-07-01T02:05:41.607Z,19.20
2018-07-01T02:08:13.838Z,19.20
2018-07-01T02:10:42.218Z,19.30
2018-07-01T02:13:11.702Z,19.20
2018-07-01T02:15:46.625Z,19.20
2018-07-01T02:18:15.039Z,19.20
2018-07-01T02:20:43.942Z,19.10
2018-07-01T02:23:17.598Z,19.20
2018-07-01T02:25:46.179Z,19.20
2018-07-01T02:28:14.560Z,19.10
2018-07-01T02:30:42.963Z,19.00
2018-07-01T02:33:11.990Z,19.00
2018-07-01T02:35:41.207Z,19.10
2018-07-01T02:38:10.314Z,19.00
2018-07-01T02:40:39.323Z,19.00
2018-07-01T02:43:08.336Z,18.80
2018-07-01T02:45:37.456Z,18.80
2018-07-01T02:48:06.696Z,18.80
2018-07-01T02:50:35.747Z,18.90
2018-07-01T02:53:04.232Z,18.80
2018-07-01T02:55:38.586Z,18.70
2018-07-01T02:58:08.648Z,18.80
2018-07-01T03:00:37.054Z,18.80
2018-07-01T03:03:05.386Z,18.70
2018-07-01T03:05:33.753Z,18.50
2018-07-01T03:08:02.089Z,18.50
2018-07-01T03:10:30.434Z,18.70
2018-07-01T03:12:58.770Z,18.50
2018-07-01T03:15:27.138Z,18.50
2018-07-01T03:21:00.681Z,18.50
2018-07-01T03:23:29.056Z,18.50
2018-07-01T03:25:57.400Z,18.50
2018-07-01T03:28:25.789Z,18.40
2018-07-01T03:30:54.140Z,18.40
2018-07-01T03:33:22.477Z,18.40
2018-07-01T03:35:50.877Z,18.30
2018-07-01T03:38:19.258Z,18.40
2018-07-01T03:40:47.590Z,18.30
2018-07-01T03:43:16.024Z,18.40
2018-07-01T03:45:44.397Z,18.40
2018-07-01T03:48:12.805Z,18.40
2018-07-01T03:50:41.121Z,18.10
2018-07-01T03:53:09.469Z,18.20
2018-07-01T03:55:37.821Z,18.20
2018-07-01T03:58:06.191Z,18.20
2018-07-01T04:00:34.564Z,18.00
2018-07-01T04:03:02.896Z,18.10
2018-07-01T04:05:31.284Z,18.10
2018-07-01T04:07:59.627Z,18.10
2018-07-01T04:10:27.947Z,18.10
2018-07-01T04:12:56.323Z,18.10
2018-07-01T04:15:24.697Z,18.00
2018-07-01T04:17:53.099Z,17.90
2018-07-01T04:20:21.470Z,18.00
2018-07-01T04:22:49.858Z,18.00
2018-07-01T04:25:18.290Z,18.00
2018-07-01T04:30:53.755Z,17.90
2018-07-01T04:35:50.148Z,17.90
2018-07-01T04:38:18.606Z,17.90
2018-07-01T04:40:46.986Z,18.00
2018-07-01T04:43:15.365Z,18.10
2018-07-01T04:45:43.738Z,18.10
2018-07-01T04:48:12.058Z,18.20
2018-07-01T04:50:40.391Z,18.20
2018-07-01T04:53:08.743Z,18.30
2018-07-01T04:55:37.136Z,18.30
2018-07-01T04:58:05.928Z,18.40
2018-07-01T05:00:34.513Z,18.50
2018-07-01T05:03:02.856Z,18.50
2018-07-01T05:05:31.289Z,18.70
2018-07-01T05:07:59.675Z,18.70
2018-07-01T05:10:28.021Z,18.60
2018-07-01T05:12:56.435Z,18.60
2018-07-01T05:26:56.406Z,19.00
2018-07-01T05:29:24.749Z,19.00
2018-07-01T05:31:53.134Z,19.10
2018-07-01T05:34:21.475Z,19.30
2018-07-01T05:36:49.783Z,19.50
2018-07-01T05:39:18.102Z,19.50
2018-07-01T05:41:46.489Z,19.60
2018-07-01T05:44:14.839Z,19.60
2018-07-01T05:46:43.209Z,19.70
2018-07-01T05:49:11.657Z,19.80
2018-07-01T05:51:40.113Z,19.70
2018-07-01T05:54:08.497Z,19.60
2018-07-01T05:56:36.848Z,19.80
2018-07-01T05:59:05.207Z,19.90
2018-07-01T06:01:33.585Z,20.10
2018-07-01T06:04:01.974Z,20.00
2018-07-01T06:06:30.365Z,20.00
2018-07-01T06:08:58.732Z,20.20
2018-07-01T06:11:45.725Z,20.20
2018-07-01T06:14:14.137Z,20.20
2018-07-01T06:16:42.600Z,20.30
2018-07-01T06:19:10.886Z,20.50
2018-07-01T06:21:39.269Z,20.40
2018-07-01T06:24:07.725Z,20.40
2018-07-01T06:26:36.163Z,20.30
2018-07-01T06:29:04.629Z,20.50
2018-07-01T06:31:33.048Z,20.70
2018-07-01T06:34:01.575Z,20.90
2018-07-01T06:36:29.965Z,21.00
2018-07-01T06:38:58.334Z,21.10
2018-07-01T06:41:26.755Z,21.10
2018-07-01T06:43:55.254Z,20.90
2018-07-01T06:46:23.669Z,21.00
2018-07-01T06:48:52.066Z,20.80
2018-07-01T06:51:20.458Z,21.10
2018-07-01T06:53:48.860Z,21.20
2018-07-01T06:56:32.030Z,21.20
2018-07-01T06:59:00.383Z,21.20
2018-07-01T07:01:28.813Z,21.20
2018-07-01T07:03:57.250Z,21.20
2018-07-01T07:06:25.630Z,21.30
2018-07-01T07:08:54.008Z,21.80
2018-07-01T07:11:22.382Z,21.70
2018-07-01T07:16:18.993Z,21.70
2018-07-01T07:18:49.195Z,21.80
2018-07-01T07:21:17.650Z,21.70
2018-07-01T07:23:46.122Z,21.80
2018-07-01T07:26:14.524Z,22.20
2018-07-01T07:28:42.976Z,22.30
2018-07-01T07:31:11.379Z,22.50
2018-07-01T07:33:39.761Z,22.20
2018-07-01T07:36:08.190Z,22.10
2018-07-01T07:38:36.617Z,22.40
2018-07-01T07:41:24.184Z,22.50
2018-07-01T07:43:52.525Z,22.30
2018-07-01T07:46:20.906Z,22.80
2018-07-01T07:48:49.275Z,23.00
2018-07-01T07:51:17.629Z,23.20
2018-07-01T07:53:45.978Z,23.30
2018-07-01T07:56:14.406Z,23.30
2018-07-01T07:58:42.825Z,23.00
2018-07-01T08:01:11.219Z,23.20
2018-07-01T08:03:39.907Z,23.40
2018-07-01T08:06:08.283Z,23.30
2018-07-01T08:08:36.637Z,22.80
2018-07-01T08:11:05.103Z,23.30
2018-07-01T08:13:33.477Z,23.20
2018-07-01T08:16:01.882Z,23.60
2018-07-01T08:18:30.275Z,23.70
2018-07-01T08:20:58.621Z,23.50
2018-07-01T08:23:26.984Z,23.70
2018-07-01T08:28:26.989Z,24.90
2018-07-01T08:30:55.352Z,25.20
2018-07-01T08:33:23.772Z,25.60
2018-07-01T08:35:52.208Z,24.80
2018-07-01T08:38:20.660Z,24.50
2018-07-01T08:40:49.057Z,24.40
2018-07-01T08:43:17.555Z,24.90
2018-07-01T08:45:45.940Z,26.00
2018-07-01T08:48:28.832Z,25.80
2018-07-01T08:50:57.247Z,26.00
2018-07-01T08:53:25.688Z,25.60
2018-07-01T08:55:54.500Z,25.40
2018-07-01T08:58:22.927Z,25.80
2018-07-01T09:00:51.357Z,25.40
2018-07-01T09:03:19.803Z,25.70
2018-07-01T09:05:48.184Z,25.60
2018-07-01T09:08:16.609Z,26.30
2018-07-01T09:13:41.478Z,25.90
2018-07-01T09:16:09.824Z,26.30
2018-07-01T09:18:38.238Z,26.10
2018-07-01T09:21:06.795Z,25.80
2018-07-01T09:23:35.323Z,26.30
2018-07-01T09:26:03.571Z,26.30
2018-07-01T09:28:31.944Z,26.40
2018-07-01T09:31:00.263Z,26.80
2018-07-01T09:33:28.640Z,27.20
2018-07-01T09:36:11.405Z,27.30
2018-07-01T09:41:07.934Z,27.60
2018-07-01T09:43:36.312Z,26.70
2018-07-01T09:46:04.670Z,26.50
2018-07-01T09:48:33.136Z,26.70
2018-07-01T09:51:01.613Z,27.20
2018-07-01T09:53:30.044Z,26.40
2018-07-01T09:55:58.461Z,27.50
2018-07-01T09:58:36.450Z,26.50
2018-07-01T10:01:04.848Z,26.80
2018-07-01T10:03:33.222Z,26.40
2018-07-01T10:06:01.617Z,26.60
2018-07-01T10:08:30.139Z,26.40
2018-07-01T10:10:58.520Z,26.90
2018-07-01T10:13:26.966Z,26.70
2018-07-01T10:15:55.334Z,27.70
2018-07-01T10:18:23.813Z,27.10
2018-07-01T10:20:58.181Z,27.90
2018-07-01T10:23:26.724Z,27.50
2018-07-01T10:25:55.264Z,27.70
2018-07-01T10:28:23.749Z,28.90
2018-07-01T10:30:52.339Z,27.70
2018-07-01T10:33:20.795Z,27.10
2018-07-01T10:35:49.653Z,28.00
2018-07-01T10:38:18.104Z,27.30
2018-07-01T10:40:46.581Z,27.60
2018-07-01T10:43:25.126Z,27.50
2018-07-01T10:45:53.612Z,26.80
2018-07-01T10:50:50.084Z,27.50
2018-07-01T10:53:18.515Z,27.60
2018-07-01T10:55:46.935Z,27.70
2018-07-01T10:58:15.413Z,28.70
2018-07-01T11:00:43.763Z,28.50
2018-07-01T11:03:12.236Z,29.00
2018-07-01T11:06:00.121Z,28.90
2018-07-01T11:08:28.577Z,28.20
2018-07-01T11:10:56.961Z,27.60
2018-07-01T11:13:25.311Z,28.40
2018-07-01T11:15:53.766Z,29.20
2018-07-01T11:18:22.120Z,29.00
2018-07-01T11:20:50.498Z,29.80
2018-07-01T11:23:18.986Z,29.40
2018-07-01T11:25:47.381Z,28.60
2018-07-01T11:28:17.753Z,27.90
2018-07-01T11:30:46.133Z,28.10
2018-07-01T11:33:14.627Z,28.40
2018-07-01T11:38:11.217Z,28.40
2018-07-01T11:40:39.554Z,28.50
2018-07-01T11:43:08.074Z,28.30
2018-07-01T11:45:36.475Z,28.20
2018-07-01T11:48:04.943Z,28.60
2018-07-01T11:56:26.046Z,29.20
2018-07-01T11:58:54.576Z,28.30
2018-07-01T12:01:23.000Z,28.30
2018-07-01T12:03:51.472Z,28.80
2018-07-01T12:06:19.936Z,29.20
2018-07-01T12:08:48.429Z,28.30
2018-07-01T12:11:16.836Z,28.60
2018-07-01T12:13:45.235Z,28.70
2018-07-01T12:18:41.822Z,28.30
2018-07-01T12:21:10.319Z,29.20
2018-07-01T12:23:38.711Z,29.10
2018-07-01T12:26:07.266Z,29.30
2018-07-01T12:28:35.692Z,29.60
2018-07-01T12:31:04.191Z,28.40
2018-07-01T12:33:32.572Z,28.50
2018-07-01T12:36:01.002Z,30.10
2018-07-01T12:38:29.467Z,30.00
2018-07-01T12:41:16.160Z,30.70
2018-07-01T12:43:44.831Z,31.10
2018-07-01T12:46:13.176Z,30.30
2018-07-01T12:48:41.549Z,30.20
2018-07-01T12:51:09.944Z,29.60
2018-07-01T12:53:38.323Z,28.80
2018-07-01T12:56:06.770Z,29.30
2018-07-01T12:58:35.181Z,30.60
2018-07-01T13:01:03.679Z,30.30
2018-07-01T13:03:32.372Z,30.50
2018-07-01T13:06:00.929Z,30.60
2018-07-01T13:08:29.373Z,30.10
2018-07-01T13:10:57.750Z,29.90
2018-07-01T13:13:26.197Z,28.90
2018-07-01T13:15:54.675Z,29.20
2018-07-01T13:18:23.253Z,29.00
2018-07-01T13:20:51.716Z,29.40
2018-07-01T13:23:20.218Z,29.10
2018-07-01T13:25:48.748Z,29.20
2018-07-01T13:28:17.142Z,28.60
2018-07-01T13:30:45.599Z,28.50
2018-07-01T13:35:42.661Z,29.40
2018-07-01T13:38:11.075Z,29.20
2018-07-01T13:40:39.573Z,28.90
2018-07-01T13:43:07.962Z,28.40
2018-07-01T13:45:36.368Z,29.40
2018-07-01T13:48:04.899Z,29.50
2018-07-01T13:50:33.382Z,29.60
2018-07-01T13:53:01.777Z,29.10
2018-07-01T13:55:30.171Z,29.10
2018-07-01T13:57:58.545Z,29.30
2018-07-01T14:00:26.998Z,28.40
2018-07-01T14:05:23.586Z,29.10
2018-07-01T14:07:52.010Z,29.00
2018-07-01T14:10:27.502Z,29.00
2018-07-01T14:15:23.984Z,28.80
2018-07-01T14:17:52.349Z,28.90
2018-07-01T14:20:20.743Z,29.00
2018-07-01T14:22:49.088Z,28.60
2018-07-01T14:25:17.645Z,28.70
2018-07-01T14:30:14.266Z,28.20
2018-07-01T14:35:10.808Z,28.30
2018-07-01T14:37:39.352Z,28.10
2018-07-01T14:40:07.776Z,27.80
2018-07-01T14:42:36.173Z,28.10
2018-07-01T14:45:04.550Z,28.30
2018-07-01T14:47:32.946Z,28.10
2018-07-01T14:52:29.353Z,27.80
2018-07-01T14:55:03.611Z,27.80
2018-07-01T14:57:31.986Z,27.60
2018-07-01T15:00:00.367Z,27.60
2018-07-01T15:02:28.769Z,27.60
2018-07-01T15:04:57.200Z,27.50
2018-07-01T15:07:25.633Z,27.50
2018-07-01T15:09:54.059Z,27.50
2018-07-01T15:12:22.521Z,27.60
2018-07-01T15:14:51.098Z,27.50
2018-07-01T15:19:53.617Z,27.60
2018-07-01T15:22:22.055Z,27.60
2018-07-01T15:24:50.495Z,27.40
2018-07-01T15:27:20.316Z,27.60
2018-07-01T15:29:48.988Z,27.80
2018-07-01T15:32:17.793Z,27.70
2018-07-01T15:34:46.771Z,27.40
2018-07-01T15:37:15.239Z,27.20
2018-07-01T15:39:43.740Z,27.20
2018-07-01T15:42:12.357Z,27.20
2018-07-01T15:44:40.877Z,27.10
2018-07-01T15:47:15.269Z,27.00
2018-07-01T15:49:43.716Z,27.40
2018-07-01T15:52:12.186Z,27.40
2018-07-01T15:54:40.728Z,27.30
2018-07-01T15:57:09.049Z,27.30
2018-07-01T15:59:37.506Z,27.10
2018-07-01T16:02:06.118Z,26.90
2018-07-01T16:04:34.528Z,26.90
2018-07-01T16:07:03.028Z,26.90
2018-07-01T16:09:32.806Z,27.00
2018-07-01T16:12:01.217Z,27.10
2018-07-01T16:14:29.635Z,27.00
2018-07-01T16:16:58.319Z,27.00
2018-07-01T16:19:26.712Z,27.00
2018-07-01T16:21:55.316Z,27.00
2018-07-01T16:24:24.171Z,27.00
2018-07-01T16:26:55.502Z,26.80
2018-07-01T16:29:24.482Z,26.80
2018-07-01T16:31:52.982Z,27.00
2018-07-01T16:34:21.658Z,26.90
2018-07-01T16:36:50.507Z,26.90
2018-07-01T16:39:19.658Z,26.80
2018-07-01T16:41:48.169Z,26.70
2018-07-01T16:44:16.682Z,26.90
2018-07-01T16:46:45.306Z,26.90
2018-07-01T16:49:13.840Z,26.80
2018-07-01T16:51:43.246Z,26.80
2018-07-01T16:54:11.611Z,26.80
2018-07-01T16:56:39.982Z,26.60
2018-07-01T16:59:08.385Z,26.50
2018-07-01T17:01:36.840Z,26.50
2018-07-01T17:04:05.223Z,26.60
2018-07-01T17:06:33.682Z,26.70
2018-07-01T17:09:02.101Z,26.50
2018-07-01T17:11:30.787Z,26.30
2018-07-01T17:14:07.042Z,26.50
2018-07-01T17:16:35.675Z,26.50
2018-07-01T17:19:04.314Z,26.50
2018-07-01T17:21:33.009Z,26.40
2018-07-01T17:24:01.568Z,26.30
2018-07-01T17:26:29.996Z,26.30
2018-07-01T17:28:58.427Z,26.20
2018-07-01T17:31:31.962Z,26.30
2018-07-01T17:34:00.294Z,26.40
2018-07-01T17:36:28.668Z,26.30
2018-07-01T17:38:57.497Z,26.30
2018-07-01T17:41:25.975Z,26.30
2018-07-01T17:43:54.522Z,26.40
2018-07-01T17:46:22.954Z,26.30
2018-07-01T17:48:51.320Z,26.30
2018-07-01T17:51:19.700Z,26.30
2018-07-01T17:53:55.737Z,26.20
2018-07-01T17:56:24.374Z,26.10
2018-07-01T17:58:53.619Z,26.20
2018-07-01T18:01:22.024Z,26.30
2018-07-01T18:03:50.632Z,26.10
2018-07-01T18:06:19.891Z,26.10
2018-07-01T18:08:48.254Z,26.10
2018-07-01T18:11:16.685Z,26.10
2018-07-01T18:13:45.056Z,26.00
2018-07-01T18:16:13.442Z,26.00
2018-07-01T18:18:42.686Z,25.90
2018-07-01T18:21:11.174Z,25.90
2018-07-01T18:24:11.123Z,25.90
2018-07-01T18:26:07.993Z,25.80
2018-07-01T18:28:48.659Z,25.80
2018-07-01T18:31:05.381Z,25.80
2018-07-01T18:33:33.829Z,25.80
2018-07-01T18:36:02.729Z,25.70
2018-07-01T18:38:31.156Z,25.60
2018-07-01T18:41:14.532Z,25.60
2018-07-01T18:43:42.922Z,25.70
2018-07-01T18:46:11.402Z,25.70
2018-07-01T18:48:39.815Z,25.60
2018-07-01T18:51:08.393Z,25.60
2018-07-01T18:53:36.795Z,25.50
2018-07-01T18:56:05.583Z,25.50
2018-07-01T18:58:33.924Z,25.60
2018-07-01T19:01:02.437Z,25.40
2018-07-01T19:03:32.666Z,25.30
2018-07-01T19:06:01.221Z,25.40
2018-07-01T19:08:29.700Z,25.40
2018-07-01T19:10:58.818Z,25.40
2018-07-01T19:13:27.213Z,25.40
2018-07-01T19:15:55.548Z,25.40
2018-07-01T19:18:24.286Z,25.30
2018-07-01T19:20:52.668Z,25.00
2018-07-01T19:23:21.036Z,25.10
2018-07-01T19:25:49.974Z,25.10
2018-07-01T19:28:18.412Z,25.10
2018-07-01T19:30:46.787Z,25.10
2018-07-01T19:33:15.100Z,25.10
2018-07-01T19:35:43.559Z,25.00
2018-07-01T19:38:11.921Z,24.80
2018-07-01T19:40:40.259Z,24.70
2018-07-01T19:43:08.713Z,24.70
2018-07-01T19:45:37.059Z,24.60
2018-07-01T19:48:06.498Z,24.60
2018-07-01T19:50:34.863Z,24.50
2018-07-01T19:53:03.296Z,24.30
2018-07-01T19:55:31.672Z,24.20
2018-07-01T19:58:00.050Z,24.30
2018-07-01T20:00:28.453Z,24.30
2018-07-01T20:02:56.905Z,24.10
2018-07-01T20:05:25.280Z,24.10
2018-07-01T20:07:53.598Z,24.00
2018-07-01T20:10:23.749Z,24.10
2018-07-01T20:12:52.124Z,24.00
2018-07-01T20:15:20.452Z,24.10
2018-07-01T20:17:48.895Z,23.90
2018-07-01T20:20:17.234Z,23.80
2018-07-01T20:22:45.565Z,23.80
2018-07-01T20:25:13.965Z,23.80
2018-07-01T20:30:10.429Z,23.80
2018-07-01T20:35:38.008Z,23.60
2018-07-01T20:38:06.382Z,23.70
2018-07-01T20:40:34.740Z,23.60
2018-07-01T20:43:03.143Z,23.40
2018-07-01T20:45:31.545Z,23.40
2018-07-01T20:48:00.207Z,23.50
2018-07-01T20:55:24.716Z,23.30
2018-07-01T20:57:58.909Z,23.40
2018-07-01T21:00:27.427Z,23.30
2018-07-01T21:02:55.859Z,23.20
2018-07-01T21:05:24.593Z,23.00
2018-07-01T21:07:53.190Z,23.10
2018-07-01T21:10:21.639Z,23.10
2018-07-01T21:12:50.025Z,23.20
2018-07-01T21:15:18.429Z,23.00
2018-07-01T21:17:46.907Z,22.90
2018-07-01T21:20:18.393Z,22.90
2018-07-01T21:22:46.729Z,22.80
2018-07-01T21:25:15.097Z,22.80
2018-07-01T21:27:43.514Z,22.60
2018-07-01T21:30:11.955Z,22.50
2018-07-01T21:32:40.335Z,22.50
2018-07-01T21:35:08.757Z,22.60
2018-07-01T21:37:37.124Z,22.70
2018-07-01T21:40:05.494Z,22.40
2018-07-01T21:42:41.749Z,22.30
2018-07-01T21:45:10.201Z,22.30
2018-07-01T21:47:38.872Z,22.20
2018-07-01T21:50:07.611Z,22.10
2018-07-01T21:52:35.952Z,22.00
2018-07-01T21:55:04.486Z,22.10
2018-07-01T21:57:32.883Z,22.00
2018-07-01T22:00:01.392Z,21.90
2018-07-01T22:02:29.774Z,22.00
2018-07-01T22:05:04.253Z,21.90
2018-07-01T22:07:32.724Z,21.80
2018-07-01T22:10:01.142Z,22.00
2018-07-01T22:12:40.625Z,21.80
2018-07-01T22:15:27.387Z,21.70
2018-07-01T22:17:57.137Z,21.60
2018-07-01T22:20:25.926Z,21.70
2018-07-01T22:22:54.441Z,21.50
2018-07-01T22:25:24.201Z,21.60
2018-07-01T22:27:52.638Z,21.60
2018-07-01T22:30:21.024Z,21.40
2018-07-01T22:32:49.405Z,21.40
2018-07-01T22:35:17.809Z,21.50
2018-07-01T22:37:46.231Z,21.50
2018-07-01T22:40:14.725Z,21.60
2018-07-01T22:42:43.060Z,21.50
2018-07-01T22:45:11.561Z,21.50
2018-07-01T22:47:46.278Z,21.40
2018-07-01T22:50:14.753Z,21.40
2018-07-01T22:52:43.185Z,21.30
2018-07-01T22:55:11.594Z,21.20
2018-07-01T22:57:40.009Z,21.20
2018-07-01T23:00:08.448Z,21.10
2018-07-01T23:02:50.046Z,21.10
2018-07-01T23:05:18.695Z,21.00
2018-07-01T23:08:00.495Z,20.90
2018-07-01T23:10:29.624Z,21.00
2018-07-01T23:12:58.633Z,21.00
2018-07-01T23:15:27.086Z,20.90
2018-07-01T23:17:55.450Z,20.90
2018-07-01T23:20:23.827Z,20.80
2018-07-01T23:22:52.241Z,20.70
2018-07-01T23:25:20.686Z,20.70
2018-07-01T23:27:49.111Z,20.70
2018-07-01T23:33:10.297Z,20.60
2018-07-01T23:35:38.674Z,20.50
2018-07-01T23:38:06.987Z,20.30
2018-07-01T23:40:35.409Z,20.40
2018-07-01T23:43:03.794Z,20.30
2018-07-01T23:45:32.324Z,20.20
2018-07-01T23:48:00.752Z,20.30
2018-07-01T23:50:29.155Z,20.30
2018-07-01T23:55:50.694Z,20.20
2018-07-01T23:58:19.076Z,20.40
